createdAt,value
2022-12-04T00:01:19.347Z,100845.28
2022-12-04T00:03:47.118Z,100846.97
2022-12-04T00:06:17.416Z,100838.53
2022-12-04T00:08:45.976Z,100823.75
2022-12-04T00:11:16.683Z,100836.78
2022-12-04T00:13:44.400Z,100832.19
2022-12-04T00:16:15.175Z,100832.28
2022-12-04T00:18:44.336Z,100825.63
2022-12-04T00:21:14.120Z,100818.44
2022-12-04T00:23:42.413Z,100826.56
2022-12-04T00:26:11.769Z,100829.19
2022-12-04T00:28:40.253Z,100823.75
2022-12-04T00:31:09.612Z,100823.00
2022-12-04T00:33:38.274Z,100795.13
2022-12-04T00:36:10.091Z,100816.06
2022-12-04T00:38:38.557Z,100788.41
2022-12-04T00:41:06.717Z,100819.66
2022-12-04T00:43:34.653Z,100813.59
2022-12-04T00:46:02.689Z,100816.47
2022-12-04T00:48:30.484Z,100782.41
2022-12-04T00:51:03.181Z,100811.06
2022-12-04T00:53:33.005Z,100810.13
2022-12-04T00:56:04.076Z,100809.38
2022-12-04T00:58:32.080Z,100799.34
2022-12-04T01:01:03.654Z,100812.75
2022-12-04T01:03:31.570Z,100808.53
2022-12-04T01:05:59.604Z,100797.19
2022-12-04T01:08:27.573Z,100801.69
2022-12-04T01:10:56.666Z,100805.81
2022-12-04T01:13:25.565Z,100812.75
2022-12-04T01:15:53.601Z,100788.78
2022-12-04T01:18:21.368Z,100802.25
2022-12-04T01:20:50.529Z,100809.28
2022-12-04T01:23:19.254Z,100801.13
2022-12-04T01:25:54.188Z,100805.25
2022-12-04T01:28:23.742Z,100811.41
2022-12-04T01:31:00.168Z,100810.38
2022-12-04T01:33:28.095Z,100802.06
2022-12-04T01:35:56.581Z,100806.19
2022-12-04T01:38:24.968Z,100811.22
2022-12-04T01:40:53.376Z,100810.22
2022-12-04T01:43:23.665Z,100801.13
2022-12-04T01:45:53.783Z,100803.38
2022-12-04T01:48:26.419Z,100790.47
2022-12-04T01:50:59.556Z,100797.47
2022-12-04T01:53:28.050Z,100795.69
2022-12-04T01:55:56.678Z,100794.66
2022-12-04T01:58:30.204Z,100792.16
2022-12-04T02:01:07.929Z,100787.09
2022-12-04T02:03:38.244Z,100789.44
2022-12-04T02:06:06.446Z,100790.09
2022-12-04T02:08:35.300Z,100779.88
2022-12-04T02:11:13.689Z,100767.16
2022-12-04T02:13:53.946Z,100785.69
2022-12-04T02:16:30.190Z,100783.16
2022-12-04T02:19:04.061Z,100786.91
2022-12-04T02:21:36.700Z,100792.16
2022-12-04T02:24:22.593Z,100796.72
2022-12-04T02:26:54.728Z,100795.88
2022-12-04T02:29:32.794Z,100797.56
2022-12-04T02:32:07.392Z,100799.25
2022-12-04T02:34:42.808Z,100791.03
2022-12-04T02:37:17.876Z,100798.59
2022-12-04T02:39:53.331Z,100783.72
2022-12-04T02:42:31.549Z,100791.47
2022-12-04T02:45:04.634Z,100786.44
2022-12-04T02:47:34.051Z,100794.84
2022-12-04T02:50:05.861Z,100784.00
2022-12-04T02:52:37.979Z,100787.66
2022-12-04T02:55:09.672Z,100798.59
2022-12-04T02:57:42.342Z,100794.41
2022-12-04T03:00:12.796Z,100793.25
2022-12-04T03:02:47.161Z,100798.81
2022-12-04T03:05:19.717Z,100784.28
2022-12-04T03:07:53.703Z,100797.03
2022-12-04T03:10:26.263Z,100792.50
2022-12-04T03:12:57.630Z,100798.88
2022-12-04T03:15:31.288Z,100800.56
2022-12-04T03:18:03.818Z,100805.81
2022-12-04T03:20:34.197Z,100806.75
2022-12-04T03:23:10.032Z,100802.44
2022-12-04T03:25:47.091Z,100802.34
2022-12-04T03:28:23.346Z,100797.19
2022-12-04T03:30:58.923Z,100799.06
2022-12-04T03:33:32.527Z,100791.22
2022-12-04T03:36:08.323Z,100793.06
2022-12-04T03:38:42.502Z,100792.22
2022-12-04T03:41:18.992Z,100794.84
2022-12-04T03:43:51.989Z,100788.78
2022-12-04T03:46:28.489Z,100789.88
2022-12-04T03:49:03.218Z,100791.38
2022-12-04T03:51:36.154Z,100788.19
2022-12-04T03:54:09.502Z,100786.50
2022-12-04T03:56:42.094Z,100792.59
2022-12-04T03:59:13.093Z,100798.50
2022-12-04T04:01:47.585Z,100783.69
2022-12-04T04:04:19.261Z,100800.19
2022-12-04T04:06:54.560Z,100779.81
2022-12-04T04:09:25.897Z,100795.97
2022-12-04T04:11:58.033Z,100800.84
2022-12-04T04:14:46.834Z,100798.88
2022-12-04T04:17:39.070Z,100796.81
2022-12-04T04:20:31.720Z,100771.53
2022-12-04T04:23:19.754Z,100802.44
2022-12-04T04:25:48.373Z,100798.88
2022-12-04T04:28:30.588Z,100803.38
2022-12-04T04:31:09.845Z,100804.13
2022-12-04T04:33:47.485Z,100786.06
2022-12-04T04:36:22.664Z,100797.00
2022-12-04T04:38:57.797Z,100789.13
2022-12-04T04:41:32.012Z,100795.88
2022-12-04T04:44:09.548Z,100789.72
2022-12-04T04:46:42.855Z,100790.94
2022-12-04T04:49:15.981Z,100796.44
2022-12-04T04:51:45.203Z,100773.91
2022-12-04T04:54:15.713Z,100786.72
2022-12-04T04:56:45.507Z,100783.16
2022-12-04T04:59:14.070Z,100789.13
2022-12-04T05:01:43.827Z,100781.28
2022-12-04T05:04:13.183Z,100782.97
2022-12-04T05:06:40.928Z,100778.28
2022-12-04T05:09:08.681Z,100787.34
2022-12-04T05:11:36.465Z,100783.25
2022-12-04T05:14:05.893Z,100779.81
2022-12-04T05:16:33.780Z,100777.19
2022-12-04T05:19:19.313Z,100776.44
2022-12-04T05:21:48.395Z,100772.03
2022-12-04T05:24:16.128Z,100773.06
2022-12-04T05:26:43.909Z,100772.13
2022-12-04T05:29:11.611Z,100778.28
2022-12-04T05:31:39.396Z,100776.59
2022-12-04T05:34:07.247Z,100779.22
2022-12-04T05:36:34.984Z,100783.44
2022-12-04T05:39:04.247Z,100785.03
2022-12-04T05:41:31.942Z,100781.75
2022-12-04T05:43:59.746Z,100777.34
2022-12-04T05:46:27.471Z,100777.44
2022-12-04T05:48:55.245Z,100781.19
2022-12-04T05:51:22.957Z,100774.91
2022-12-04T05:53:52.747Z,100771.28
2022-12-04T05:56:22.045Z,100771.28
2022-12-04T05:58:49.828Z,100774.81
2022-12-04T06:01:19.839Z,100777.44
2022-12-04T06:03:47.745Z,100779.13
2022-12-04T06:06:21.523Z,100777.63
2022-12-04T06:08:50.266Z,100744.97
2022-12-04T06:11:20.914Z,100780.16
2022-12-04T06:13:50.283Z,100779.97
2022-12-04T06:16:19.780Z,100780.16
2022-12-04T06:18:51.604Z,100779.97
2022-12-04T06:21:20.745Z,100781.09
2022-12-04T06:23:48.769Z,100780.34
2022-12-04T06:26:16.970Z,100788.75
2022-12-04T06:28:45.208Z,100787.06
2022-12-04T06:31:18.977Z,100786.06
2022-12-04T06:33:47.178Z,100785.56
2022-12-04T06:36:17.629Z,100800.06
2022-12-04T06:38:45.884Z,100799.22
2022-12-04T06:41:15.360Z,100800.25
2022-12-04T06:43:43.585Z,100805.31
2022-12-04T06:46:13.281Z,100805.31
2022-12-04T06:48:43.109Z,100804.81
2022-12-04T06:51:13.804Z,100812.50
2022-12-04T06:53:42.566Z,100810.06
2022-12-04T06:56:17.806Z,100814.47
2022-12-04T06:58:47.928Z,100804.81
2022-12-04T07:01:17.971Z,100808.59
2022-12-04T07:03:51.683Z,100805.97
2022-12-04T07:06:21.533Z,100811.00
2022-12-04T07:08:54.334Z,100805.03
2022-12-04T07:11:23.192Z,100812.44
2022-12-04T07:13:53.144Z,100798.44
2022-12-04T07:16:23.150Z,100817.19
2022-12-04T07:18:54.254Z,100793.09
2022-12-04T07:21:23.639Z,100817.00
2022-12-04T07:23:52.614Z,100825.16
2022-12-04T07:26:21.591Z,100823.66
2022-12-04T07:28:50.024Z,100812.41
2022-12-04T07:31:20.508Z,100822.97
2022-12-04T07:33:49.385Z,100818.41
2022-12-04T07:36:22.379Z,100801.56
2022-12-04T07:38:51.144Z,100811.31
2022-12-04T07:41:22.306Z,100833.34
2022-12-04T07:43:50.036Z,100834.38
2022-12-04T07:46:20.800Z,100832.03
2022-12-04T07:48:48.677Z,100829.06
2022-12-04T07:51:19.915Z,100836.72
2022-12-04T07:53:48.244Z,100833.34
2022-12-04T07:56:17.391Z,100827.00
2022-12-04T07:58:45.419Z,100811.66
2022-12-04T08:01:16.265Z,100826.09
2022-12-04T08:03:48.556Z,100832.16
2022-12-04T08:06:17.526Z,100834.28
2022-12-04T08:08:47.132Z,100835.97
2022-12-04T08:11:16.980Z,100839.34
2022-12-04T08:13:45.205Z,100840.88
2022-12-04T08:16:14.022Z,100839.16
2022-12-04T08:18:46.536Z,100841.97
2022-12-04T08:21:15.901Z,100843.72
2022-12-04T08:23:44.722Z,100841.19
2022-12-04T08:26:14.404Z,100837.81
2022-12-04T08:28:45.269Z,100849.41
2022-12-04T08:31:15.088Z,100843.00
2022-12-04T08:33:44.160Z,100845.63
2022-12-04T08:36:14.035Z,100841.06
2022-12-04T08:38:42.279Z,100851.84
2022-12-04T08:41:14.387Z,100845.97
2022-12-04T08:43:42.600Z,100855.13
2022-12-04T08:46:13.078Z,100847.53
2022-12-04T08:48:41.426Z,100853.53
2022-12-04T08:51:14.337Z,100849.41
2022-12-04T08:53:42.950Z,100840.81
2022-12-04T08:56:11.227Z,100848.00
2022-12-04T08:58:40.596Z,100830.84
2022-12-04T09:01:10.082Z,100846.78
2022-12-04T09:03:38.440Z,100843.06
2022-12-04T09:06:07.782Z,100826.59
2022-12-04T09:08:36.589Z,100836.31
2022-12-04T09:11:05.484Z,100836.31
2022-12-04T09:13:33.258Z,100826.97
2022-12-04T09:16:05.531Z,100830.25
2022-12-04T09:18:33.661Z,100834.28
2022-12-04T09:21:03.431Z,100835.78
2022-12-04T09:23:31.198Z,100843.81
2022-12-04T09:25:59.046Z,100840.34
2022-12-04T09:28:27.167Z,100828.47
2022-12-04T09:30:59.816Z,100851.50
2022-12-04T09:33:30.529Z,100860.13
2022-12-04T09:36:00.521Z,100856.91
2022-12-04T09:38:28.619Z,100862.91
2022-12-04T09:41:03.703Z,100862.97
2022-12-04T09:43:35.581Z,100859.13
2022-12-04T09:46:11.245Z,100864.69
2022-12-04T09:48:43.970Z,100862.59
2022-12-04T09:51:18.657Z,100863.78
2022-12-04T09:53:49.810Z,100852.47
2022-12-04T09:56:20.772Z,100853.06
2022-12-04T09:58:52.095Z,100851.19
2022-12-04T10:01:24.341Z,100856.22
2022-12-04T10:03:56.896Z,100860.38
2022-12-04T10:06:33.200Z,100853.19
2022-12-04T10:09:04.796Z,100857.50
2022-12-04T10:11:49.638Z,100855.81
2022-12-04T10:14:38.780Z,100846.44
2022-12-04T10:17:27.838Z,100850.56
2022-12-04T10:20:13.652Z,100840.78
2022-12-04T10:22:54.651Z,100833.75
2022-12-04T10:25:24.015Z,100832.16
2022-12-04T10:27:57.007Z,100839.16
2022-12-04T10:30:27.506Z,100834.59
2022-12-04T10:33:00.852Z,100819.72
2022-12-04T10:35:32.237Z,100818.63
2022-12-04T10:38:04.325Z,100821.94
2022-12-04T10:40:36.732Z,100821.41
2022-12-04T10:43:12.294Z,100814.13
2022-12-04T10:45:40.087Z,100815.69
2022-12-04T10:48:17.589Z,100809.50
2022-12-04T10:50:46.709Z,100804.28
2022-12-04T10:53:17.355Z,100810.28
2022-12-04T10:55:45.221Z,100795.28
2022-12-04T10:58:17.560Z,100796.25
2022-12-04T11:00:46.775Z,100799.03
2022-12-04T11:03:25.925Z,100772.25
2022-12-04T11:05:57.727Z,100792.66
2022-12-04T11:08:31.198Z,100783.34
2022-12-04T11:11:02.215Z,100787.63
2022-12-04T11:13:30.593Z,100784.25
2022-12-04T11:15:59.352Z,100778.84
2022-12-04T11:18:29.197Z,100776.03
2022-12-04T11:21:01.669Z,100782.69
2022-12-04T11:23:33.136Z,100778.09
2022-12-04T11:26:05.803Z,100778.19
2022-12-04T11:28:43.079Z,100783.34
2022-12-04T11:31:17.725Z,100774.75
2022-12-04T11:33:49.084Z,100764.34
2022-12-04T11:36:24.075Z,100772.13
2022-12-04T11:38:54.360Z,100770.69
2022-12-04T11:41:28.107Z,100774.00
2022-12-04T11:44:00.229Z,100763.25
2022-12-04T11:46:31.687Z,100768.84
2022-12-04T11:48:59.980Z,100765.19
2022-12-04T11:51:43.549Z,100764.44
2022-12-04T11:54:23.612Z,100765.94
2022-12-04T11:57:00.195Z,100751.94
2022-12-04T11:59:51.921Z,100757.53
2022-12-04T12:02:45.603Z,100754.06
2022-12-04T12:05:38.139Z,100756.50
2022-12-04T12:08:21.980Z,100759.31
2022-12-04T12:11:00.624Z,100747.97
2022-12-04T12:13:36.411Z,100762.00
2022-12-04T12:16:16.795Z,100760.31
2022-12-04T12:18:59.257Z,100748.56
2022-12-04T12:21:29.031Z,100742.75
2022-12-04T12:24:18.363Z,100745.19
2022-12-04T12:26:55.185Z,100739.50
2022-12-04T12:29:44.138Z,100741.34
2022-12-04T12:32:30.379Z,100737.16
2022-12-04T12:34:59.257Z,100747.44
2022-12-04T12:37:32.090Z,100750.91
2022-12-04T12:40:07.609Z,100756.97
2022-12-04T12:42:39.691Z,100748.38
2022-12-04T12:45:27.650Z,100754.38
2022-12-04T12:48:00.166Z,100751.00
2022-12-04T12:50:36.883Z,100750.06
2022-12-04T12:53:19.842Z,100743.97
2022-12-04T12:56:01.949Z,100722.63
2022-12-04T12:58:39.626Z,100731.25
2022-12-04T13:01:14.446Z,100724.91
2022-12-04T13:03:51.478Z,100726.50
2022-12-04T13:06:24.353Z,100721.44
2022-12-04T13:09:00.445Z,100715.44
2022-12-04T13:11:32.213Z,100719.66
2022-12-04T13:14:02.409Z,100716.00
2022-12-04T13:16:36.991Z,100717.88
2022-12-04T13:19:13.447Z,100711.63
2022-12-04T13:21:46.077Z,100711.63
2022-12-04T13:24:43.439Z,100715.91
2022-12-04T13:27:21.267Z,100713.47
2022-12-04T13:30:02.780Z,100708.25
2022-12-04T13:32:55.500Z,100700.28
2022-12-04T13:35:37.268Z,100699.53
2022-12-04T13:38:24.013Z,100698.88
2022-12-04T13:40:55.022Z,100692.63
2022-12-04T13:43:34.645Z,100695.06
2022-12-04T13:46:05.604Z,100696.84
2022-12-04T13:48:37.510Z,100695.25
2022-12-04T13:51:21.573Z,100696.94
2022-12-04T13:54:00.953Z,100695.91
2022-12-04T13:56:30.612Z,100688.97
2022-12-04T13:59:05.485Z,100701.22
2022-12-04T14:01:39.967Z,100702.72
2022-12-04T14:04:08.494Z,100700.97
2022-12-04T14:06:39.382Z,100699.47
2022-12-04T14:09:10.276Z,100711.31
2022-12-04T14:11:46.096Z,100714.97
2022-12-04T14:14:26.643Z,100703.44
2022-12-04T14:16:55.586Z,100707.75
2022-12-04T14:19:30.617Z,100697.50
2022-12-04T14:21:58.599Z,100704.50
2022-12-04T14:24:37.488Z,100690.84
2022-12-04T14:27:34.863Z,100689.81
2022-12-04T14:30:04.137Z,100675.78
2022-12-04T14:32:35.051Z,100669.63
2022-12-04T14:35:03.750Z,100670.56
2022-12-04T14:37:36.417Z,100683.44
2022-12-04T14:40:07.259Z,100686.19
2022-12-04T14:42:39.035Z,100685.25
2022-12-04T14:45:20.883Z,100685.44
2022-12-04T14:47:59.694Z,100684.50
2022-12-04T14:50:33.056Z,100681.78
2022-12-04T14:53:10.068Z,100682.63
2022-12-04T14:55:47.082Z,100682.50
2022-12-04T14:58:34.585Z,100686.06
2022-12-04T15:01:04.894Z,100679.16
2022-12-04T15:03:36.901Z,100672.94
2022-12-04T15:06:08.076Z,100683.44
2022-12-04T15:08:36.266Z,100685.03
2022-12-04T15:11:24.689Z,100678.50
2022-12-04T15:13:53.914Z,100675.56
2022-12-04T15:16:23.501Z,100681.88
2022-12-04T15:18:55.509Z,100684.41
2022-12-04T15:21:24.374Z,100681.66
2022-12-04T15:23:52.098Z,100685.25
2022-12-04T15:26:22.972Z,100681.78
2022-12-04T15:28:55.349Z,100679.50
2022-12-04T15:31:26.552Z,100680.44
2022-12-04T15:33:58.271Z,100691.00
2022-12-04T15:36:45.759Z,100693.63
2022-12-04T15:39:18.057Z,100683.34
2022-12-04T15:41:45.775Z,100698.78
2022-12-04T15:44:27.669Z,100698.69
2022-12-04T15:46:57.131Z,100696.06
2022-12-04T15:49:28.101Z,100694.47
2022-12-04T15:52:06.665Z,100692.03
2022-12-04T15:54:36.185Z,100693.38
2022-12-04T15:57:07.602Z,100698.44
2022-12-04T15:59:37.189Z,100701.88
2022-12-04T16:02:08.917Z,100681.03
2022-12-04T16:04:41.101Z,100684.41
2022-12-04T16:07:21.903Z,100684.94
2022-12-04T16:09:59.531Z,100671.78
2022-12-04T16:12:32.780Z,100690.66
2022-12-04T16:15:01.933Z,100683.84
2022-12-04T16:17:32.609Z,100667.56
2022-12-04T16:20:01.663Z,100691.69
2022-12-04T16:22:31.425Z,100687.94
2022-12-04T16:24:59.494Z,100687.94
2022-12-04T16:27:27.583Z,100686.19
2022-12-04T16:29:55.323Z,100687.56
2022-12-04T16:32:29.928Z,100691.69
2022-12-04T16:34:57.941Z,100686.44
2022-12-04T16:37:26.353Z,100690.19
2022-12-04T16:39:54.085Z,100698.97
2022-12-04T16:42:24.563Z,100694.06
2022-12-04T16:44:52.673Z,100704.41
2022-12-04T16:47:20.570Z,100708.25
2022-12-04T16:49:53.291Z,100709.19
2022-12-04T16:52:21.769Z,100718.72
2022-12-04T16:54:49.497Z,100719.75
2022-12-04T16:57:17.261Z,100718.81
2022-12-04T16:59:45.010Z,100726.84
2022-12-04T17:02:17.255Z,100724.63
2022-12-04T17:04:57.005Z,100722.84
2022-12-04T17:07:27.387Z,100723.13
2022-12-04T17:09:55.095Z,100724.91
2022-12-04T17:12:22.797Z,100733.78
2022-12-04T17:14:50.822Z,100727.50
2022-12-04T17:17:18.552Z,100724.22
2022-12-04T17:19:46.516Z,100719.56
2022-12-04T17:22:16.201Z,100725.81
2022-12-04T17:24:57.163Z,100722.94
2022-12-04T17:27:25.912Z,100731.72
2022-12-04T17:29:53.699Z,100721.34
2022-12-04T17:32:21.476Z,100716.94
2022-12-04T17:34:49.310Z,100724.81
2022-12-04T17:37:18.330Z,100719.38
2022-12-04T17:39:46.120Z,100721.06
2022-12-04T17:42:16.514Z,100720.22
2022-12-04T17:44:44.428Z,100717.47
2022-12-04T17:47:12.733Z,100714.84
2022-12-04T17:49:40.553Z,100719.81
2022-12-04T17:52:08.405Z,100708.69
2022-12-04T17:54:37.647Z,100717.19
2022-12-04T17:57:05.370Z,100713.09
2022-12-04T17:59:33.065Z,100715.59
2022-12-04T18:02:00.827Z,100713.22
2022-12-04T18:04:28.513Z,100714.78
2022-12-04T18:06:56.461Z,100721.50
2022-12-04T18:09:24.412Z,100717.00
2022-12-04T18:11:53.604Z,100717.09
2022-12-04T18:14:23.465Z,100715.16
2022-12-04T18:16:53.415Z,100716.94
2022-12-04T18:19:23.355Z,100715.25
2022-12-04T18:21:51.133Z,100705.69
2022-12-04T18:24:19.248Z,100710.00
2022-12-04T18:26:49.195Z,100706.44
2022-12-04T18:29:19.731Z,100709.81
2022-12-04T18:31:48.009Z,100698.03
2022-12-04T18:34:16.230Z,100707.09
2022-12-04T18:36:45.344Z,100713.38
2022-12-04T18:39:15.627Z,100705.41
2022-12-04T18:41:43.996Z,100705.41
2022-12-04T18:44:12.302Z,100706.44
2022-12-04T18:46:42.043Z,100665.69
2022-12-04T18:49:11.390Z,100697.75
2022-12-04T18:51:40.655Z,100698.50
2022-12-04T18:54:11.418Z,100694.94
2022-12-04T18:56:39.682Z,100685.69
2022-12-04T18:59:09.776Z,100709.72
2022-12-04T19:01:37.910Z,100705.41
2022-12-04T19:04:09.363Z,100698.19
2022-12-04T19:06:40.220Z,100711.28
2022-12-04T19:09:11.212Z,100682.22
2022-12-04T19:11:39.813Z,100701.66
2022-12-04T19:14:17.710Z,100713.91
2022-12-04T19:16:49.293Z,100707.94
2022-12-04T19:19:18.833Z,100689.41
2022-12-04T19:21:46.643Z,100708.88
2022-12-04T19:24:14.455Z,100714.22
2022-12-04T19:26:42.924Z,100715.06
2022-12-04T19:29:13.716Z,100715.72
2022-12-04T19:31:41.686Z,100720.72
2022-12-04T19:34:09.521Z,100726.19
2022-12-04T19:36:38.716Z,100725.97
2022-12-04T19:39:07.228Z,100722.59
2022-12-04T19:41:37.066Z,100729.34
2022-12-04T19:44:20.098Z,100731.13
2022-12-04T19:46:53.200Z,100727.66
2022-12-04T19:49:20.902Z,100725.34
2022-12-04T19:51:50.601Z,100732.38
2022-12-04T19:54:19.226Z,100723.44
2022-12-04T19:56:51.104Z,100728.69
2022-12-04T19:59:19.630Z,100721.66
2022-12-04T20:01:48.079Z,100737.28
2022-12-04T20:04:15.928Z,100729.44
2022-12-04T20:06:45.747Z,100728.91
2022-12-04T20:09:18.711Z,100732.16
2022-12-04T20:11:46.441Z,100728.06
2022-12-04T20:14:14.493Z,100735.59
2022-12-04T20:16:43.026Z,100737.28
2022-12-04T20:19:16.793Z,100734.59
2022-12-04T20:21:45.108Z,100697.28
2022-12-04T20:24:16.290Z,100706.63
2022-12-04T20:26:46.239Z,100726.63
2022-12-04T20:29:16.085Z,100727.00
2022-12-04T20:31:46.076Z,100713.19
2022-12-04T20:34:17.477Z,100703.72
2022-12-04T20:36:47.093Z,100710.25
2022-12-04T20:39:20.129Z,100698.66
2022-12-04T20:41:48.527Z,100704.72
2022-12-04T20:44:18.797Z,100697.72
2022-12-04T20:46:46.913Z,100701.47
2022-12-04T20:49:21.301Z,100700.63
2022-12-04T20:51:51.456Z,100704.16
2022-12-04T20:54:22.651Z,100695.28
2022-12-04T20:56:52.671Z,100691.06
2022-12-04T20:59:22.237Z,100682.69
2022-12-04T21:01:51.399Z,100690.31
2022-12-04T21:04:19.739Z,100688.84
2022-12-04T21:06:47.806Z,100692.22
2022-12-04T21:09:17.668Z,100681.75
2022-12-04T21:11:48.185Z,100687.69
2022-12-04T21:14:35.787Z,100687.53
2022-12-04T21:17:03.870Z,100683.97
2022-12-04T21:19:32.141Z,100666.41
2022-12-04T21:22:00.048Z,100684.63
2022-12-04T21:24:28.666Z,100687.22
2022-12-04T21:26:57.673Z,100692.28
2022-12-04T21:29:25.446Z,100696.69
2022-12-04T21:31:53.216Z,100699.16
2022-12-04T21:34:20.951Z,100717.66
2022-12-04T21:36:48.757Z,100725.59
2022-12-04T21:39:16.862Z,100723.25
2022-12-04T21:42:02.128Z,100733.56
2022-12-04T21:44:31.456Z,100733.75
2022-12-04T21:46:59.428Z,100734.41
2022-12-04T21:49:27.625Z,100731.69
2022-12-04T21:51:58.104Z,100723.72
2022-12-04T21:54:27.125Z,100734.66
2022-12-04T21:56:55.534Z,100730.25
2022-12-04T21:59:23.582Z,100727.94
2022-12-04T22:01:53.244Z,100732.81
2022-12-04T22:04:21.031Z,100728.69
2022-12-04T22:06:48.717Z,100735.81
2022-12-04T22:09:16.558Z,100738.31
2022-12-04T22:11:44.641Z,100739.53
2022-12-04T22:14:13.534Z,100746.06
2022-12-04T22:16:43.029Z,100736.56
2022-12-04T22:19:13.280Z,100735.72
2022-12-04T22:21:41.309Z,100740.28
2022-12-04T22:24:10.765Z,100734.50
2022-12-04T22:26:39.404Z,100721.22
2022-12-04T22:29:34.110Z,100736.09
2022-12-04T22:31:55.371Z,100733.38
2022-12-04T22:34:24.525Z,100741.03
2022-12-04T22:36:52.256Z,100743.84
2022-12-04T22:39:19.970Z,100720.28
2022-12-04T22:41:47.763Z,100749.28
2022-12-04T22:44:15.445Z,100744.03
2022-12-04T22:46:43.308Z,100741.22
2022-12-04T22:49:11.128Z,100738.03
2022-12-04T22:51:40.248Z,100742.53
2022-12-04T22:54:08.282Z,100735.44
2022-12-04T22:56:35.981Z,100750.13
2022-12-04T22:59:03.809Z,100749.66
2022-12-04T23:01:33.609Z,100752.94
2022-12-04T23:04:02.709Z,100750.22
2022-12-04T23:06:32.422Z,100751.91
2022-12-04T23:09:03.629Z,100746.09
2022-12-04T23:11:31.614Z,100749.09
2022-12-04T23:14:01.063Z,100752.84
2022-12-04T23:19:13.135Z,100736.34
2022-12-04T23:21:41.769Z,100745.72
2022-12-04T23:24:11.503Z,100748.34
2022-12-04T23:26:41.656Z,100750.22
2022-12-04T23:29:29.668Z,100748.44
2022-12-04T23:31:57.303Z,100746.09
2022-12-04T23:34:25.590Z,100744.03
2022-12-04T23:36:53.356Z,100728.69
2022-12-04T23:39:22.403Z,100743.94
2022-12-04T23:41:50.145Z,100731.88
2022-12-04T23:44:17.934Z,100730.00
2022-12-04T23:46:45.658Z,100737.09
2022-12-04T23:49:13.604Z,100738.97
2022-12-04T23:51:41.326Z,100737.19
2022-12-04T23:54:09.085Z,100737.84
2022-12-04T23:56:38.157Z,100738.13
2022-12-04T23:59:05.877Z,100739.63
